Time;durP1;ratioP1;P1;durP2;ratioP2;P2;SDS_P1;SDS_P2;PMS_P1;PMS_P2;Temp;Humidity;BMP_temperature;BMP_pressure;BME280_temperature;BME280_humidity;BME280_pressure;Samples;Min_cycle;Max_cycle;Signal;HPM_P1;HPM_P2
2021/01/20 00:00:56;;;;;;;;;;;12.80;77.90;;;;;;2096928;28;751;-54
2021/01/20 00:02:15;;;;;;;;;;;12.80;77.90;;;;;;2097410;28;807;-54
2021/01/20 00:03:35;;;;;;;;;;;12.80;77.90;;;;;;2097325;28;1486;-53
2021/01/20 00:04:54;;;;;;;;;;;12.70;77.80;;;;;;2074511;28;2042;-52
2021/01/20 00:06:13;;;;;;;;;;;12.70;77.80;;;;;;2077498;28;1518;-52
2021/01/20 00:07:32;;;;;;;;;;;12.70;78.40;;;;;;2088473;28;1446;-53
2021/01/20 00:08:51;;;;;;;;;;;12.70;78.30;;;;;;2089072;28;735;-54
2021/01/20 00:10:11;;;;;;;;;;;12.80;77.80;;;;;;2088903;28;751;-54
2021/01/20 00:11:31;;;;;;;;;;;12.70;77.60;;;;;;2089016;28;799;-54
2021/01/20 00:12:50;;;;;;;;;;;12.70;77.60;;;;;;2080175;28;1965;-54
2021/01/20 00:14:13;;;;;;;;;;;12.80;77.70;;;;;;2085144;28;701;-53
2021/01/20 00:15:32;;;;;;;;;;;12.80;77.70;;;;;;2087896;28;765;-54
2021/01/20 00:16:51;;;;;;;;;;;12.70;77.50;;;;;;2089108;28;759;-53
2021/01/20 00:18:10;;;;;;;;;;;12.70;77.50;;;;;;2089043;28;753;-53
2021/01/20 00:19:29;;;;;;;;;;;12.70;78.20;;;;;;2089082;28;743;-57
2021/01/20 00:20:48;;;;;;;;;;;12.70;78.20;;;;;;2088460;28;752;-52
2021/01/20 00:22:09;;;;;;;;;;;12.70;77.50;;;;;;2085108;28;730;-52
2021/01/20 00:23:28;;;;;;;;;;;12.70;77.50;;;;;;2088242;28;1556;-53
2021/01/20 00:24:48;;;;;;;;;;;12.70;77.50;;;;;;2101186;28;1007;-52
2021/01/20 00:26:07;;;;;;;;;;;12.70;77.50;;;;;;2097231;28;1082;-55
2021/01/20 00:27:26;;;;;;;;;;;12.70;77.40;;;;;;2094919;28;765;-52
2021/01/20 00:28:46;;;;;;;;;;;12.70;77.50;;;;;;2090329;28;998;-53
2021/01/20 00:30:08;;;;;;;;;;;12.70;77.40;;;;;;2091706;28;835;-54
2021/01/20 00:31:27;;;;;;;;;;;12.70;77.40;;;;;;2093436;28;743;-55
2021/01/20 00:32:46;;;;;;;;;;;12.70;77.40;;;;;;2093616;28;1902;-54
2021/01/20 00:34:06;;;;;;;;;;;12.70;78.00;;;;;;2092736;28;785;-54
2021/01/20 00:35:25;;;;;;;;;;;12.70;77.90;;;;;;2091799;28;964;-54
2021/01/20 00:36:44;;;;;;;;;;;12.70;77.20;;;;;;2094470;28;748;-54
2021/01/20 00:38:03;;;;;;;;;;;12.70;77.20;;;;;;2094385;28;736;-54
2021/01/20 00:39:22;;;;;;;;;;;12.70;77.20;;;;;;2094989;28;728;-52
2021/01/20 00:40:42;;;;;;;;;;;12.70;77.20;;;;;;2096455;28;714;-54
2021/01/20 00:42:01;;;;;;;;;;;12.70;77.20;;;;;;2098414;28;717;-54
2021/01/20 00:43:20;;;;;;;;;;;12.60;77.00;;;;;;2089757;28;1383;-53
2021/01/20 00:44:41;;;;;;;;;;;12.70;77.10;;;;;;2095022;28;726;-51
2021/01/20 00:46:01;;;;;;;;;;;12.70;77.10;;;;;;2098936;28;760;-52
2021/01/20 00:47:21;;;;;;;;;;;12.70;77.10;;;;;;2098052;28;725;-52
2021/01/20 00:48:40;;;;;;;;;;;12.70;77.90;;;;;;2094629;28;854;-54
2021/01/20 00:49:59;;;;;;;;;;;12.60;77.70;;;;;;2098498;28;811;-52
2021/01/20 00:51:18;;;;;;;;;;;12.70;77.00;;;;;;2098067;28;742;-52
2021/01/20 00:52:38;;;;;;;;;;;12.70;77.00;;;;;;2098226;28;1972;-52
2021/01/20 00:53:57;;;;;;;;;;;12.70;77.00;;;;;;2091057;28;1027;-52
2021/01/20 00:55:18;;;;;;;;;;;12.60;76.80;;;;;;2089763;28;1094;-55
2021/01/20 00:56:42;;;;;;;;;;;12.70;76.90;;;;;;2081928;28;713;-55
2021/01/20 00:58:01;;;;;;;;;;;12.60;76.80;;;;;;2081595;28;727;-53
2021/01/20 00:59:20;;;;;;;;;;;12.60;76.90;;;;;;2086301;28;856;-52
2021/01/20 01:00:39;;;;;;;;;;;12.60;76.80;;;;;;2078041;28;906;-52
2021/01/20 01:01:59;;;;;;;;;;;12.60;76.80;;;;;;2090545;28;737;-52
2021/01/20 01:03:26;;;;;;;;;;;12.60;76.80;;;;;;2082435;28;1456;-53
2021/01/20 01:04:46;;;;;;;;;;;12.60;76.80;;;;;;2094089;28;753;-52
2021/01/20 01:06:06;;;;;;;;;;;12.60;76.80;;;;;;2076341;28;777;-53
2021/01/20 01:07:25;;;;;;;;;;;12.60;76.80;;;;;;2091666;28;717;-54
2021/01/20 01:08:45;;;;;;;;;;;12.60;77.50;;;;;;2084692;28;736;-54
2021/01/20 01:10:04;;;;;;;;;;;12.60;76.80;;;;;;2081864;28;794;-53
2021/01/20 01:11:43;;;;;;;;;;;12.60;76.90;;;;;;2081635;28;859;-53
2021/01/20 01:13:03;;;;;;;;;;;12.60;76.80;;;;;;2081577;28;1906;-52
2021/01/20 01:14:24;;;;;;;;;;;12.60;76.80;;;;;;2094987;28;757;-52
2021/01/20 01:15:56;;;;;;;;;;;12.60;76.80;;;;;;2083152;28;780;-53
2021/01/20 01:17:15;;;;;;;;;;;12.60;76.70;;;;;;2086554;28;754;-55
2021/01/20 01:18:47;;;;;;;;;;;12.60;76.70;;;;;;2081491;28;733;-54
2021/01/20 01:20:07;;;;;;;;;;;12.60;76.80;;;;;;2081717;28;1056;-54
2021/01/20 01:21:26;;;;;;;;;;;12.60;76.70;;;;;;2081496;28;745;-55
2021/01/20 01:22:45;;;;;;;;;;;12.60;76.80;;;;;;2077952;28;735;-53
2021/01/20 01:24:07;;;;;;;;;;;12.60;76.70;;;;;;2092517;28;1063;-53
2021/01/20 01:25:27;;;;;;;;;;;12.50;76.60;;;;;;2102594;28;903;-52
2021/01/20 01:26:46;;;;;;;;;;;12.60;76.60;;;;;;2104756;28;771;-52
2021/01/20 01:28:10;;;;;;;;;;;12.60;76.60;;;;;;2098075;28;719;-53
2021/01/20 01:29:29;;;;;;;;;;;12.60;76.60;;;;;;2081302;28;741;-53
2021/01/20 01:30:53;;;;;;;;;;;12.60;76.60;;;;;;2092962;28;781;-54
2021/01/20 01:32:12;;;;;;;;;;;12.60;76.50;;;;;;2093899;28;1347;-55
2021/01/20 01:33:33;;;;;;;;;;;12.50;76.50;;;;;;2089001;28;1914;-54
2021/01/20 01:34:52;;;;;;;;;;;12.60;76.50;;;;;;2093768;28;771;-52
2021/01/20 01:36:11;;;;;;;;;;;12.50;76.40;;;;;;2094429;28;728;-53
2021/01/20 01:37:31;;;;;;;;;;;12.50;76.30;;;;;;2097745;28;730;-52
2021/01/20 01:39:03;;;;;;;;;;;12.50;76.40;;;;;;2097854;28;710;-52
2021/01/20 01:40:30;;;;;;;;;;;12.50;76.40;;;;;;2097506;28;734;-54
2021/01/20 01:42:09;;;;;;;;;;;12.50;77.00;;;;;;2098082;28;1011;-54
2021/01/20 01:43:28;;;;;;;;;;;12.50;76.30;;;;;;2097649;28;1395;-55
2021/01/20 01:45:08;;;;;;;;;;;12.50;76.30;;;;;;2096511;28;739;-54
2021/01/20 01:46:27;;;;;;;;;;;12.50;76.20;;;;;;2094636;28;712;-53
2021/01/20 01:48:22;;;;;;;;;;;12.50;77.00;;;;;;2092995;28;1290;-54
2021/01/20 01:49:41;;;;;;;;;;;12.50;76.20;;;;;;2098091;28;700;-53
2021/01/20 01:51:03;;;;;;;;;;;12.50;76.20;;;;;;2089111;28;759;-54
2021/01/20 01:52:24;;;;;;;;;;;12.50;76.20;;;;;;2094884;28;740;-54
2021/01/20 01:54:09;;;;;;;;;;;12.50;76.20;;;;;;2085590;28;1437;-53
2021/01/20 01:55:29;;;;;;;;;;;12.50;76.20;;;;;;2089155;28;967;-53
2021/01/20 01:56:59;;;;;;;;;;;12.50;76.10;;;;;;2095825;28;714;-53
2021/01/20 01:58:19;;;;;;;;;;;12.50;76.10;;;;;;2097647;28;729;-52
2021/01/20 01:59:44;;;;;;;;;;;12.50;76.10;;;;;;2082501;28;756;-52
2021/01/20 02:01:20;;;;;;;;;;;12.50;76.90;;;;;;2091003;28;788;-53
2021/01/20 02:02:48;;;;;;;;;;;12.50;76.10;;;;;;2090709;28;767;-53
2021/01/20 02:04:12;;;;;;;;;;;12.40;76.00;;;;;;2091041;28;737;-53
2021/01/20 02:05:39;;;;;;;;;;;12.50;76.10;;;;;;2093498;28;767;-54
2021/01/20 02:06:58;;;;;;;;;;;12.40;75.90;;;;;;2092456;28;788;-53
2021/01/20 02:08:24;;;;;;;;;;;12.40;75.90;;;;;;2095312;28;706;-53
2021/01/20 02:10:05;;;;;;;;;;;12.40;75.90;;;;;;2093882;28;745;-53
2021/01/20 02:11:41;;;;;;;;;;;12.50;76.00;;;;;;2084132;28;992;-52
2021/01/20 02:13:13;;;;;;;;;;;12.50;75.90;;;;;;2112356;28;1973;-53
2021/01/20 02:14:58;;;;;;;;;;;12.40;76.50;;;;;;2096588;28;946;-55
2021/01/20 02:16:22;;;;;;;;;;;12.40;76.60;;;;;;2097280;28;730;-54
2021/01/20 02:17:46;;;;;;;;;;;12.40;75.80;;;;;;2094779;28;724;-54
2021/01/20 02:19:14;;;;;;;;;;;12.40;75.80;;;;;;2087519;28;753;-55
2021/01/20 02:20:40;;;;;;;;;;;12.40;75.80;;;;;;2094022;28;768;-55
2021/01/20 02:22:10;;;;;;;;;;;12.40;75.80;;;;;;2095067;28;715;-52
2021/01/20 02:23:42;;;;;;;;;;;12.40;75.70;;;;;;2092307;28;1397;-53
2021/01/20 02:25:33;;;;;;;;;;;12.40;76.50;;;;;;2089431;28;1225;-53
2021/01/20 02:27:08;;;;;;;;;;;12.40;75.80;;;;;;2080534;28;733;-54
2021/01/20 02:28:35;;;;;;;;;;;12.40;76.50;;;;;;2070690;28;738;-54
2021/01/20 02:30:10;;;;;;;;;;;12.40;75.70;;;;;;2079511;28;755;-54
2021/01/20 02:31:44;;;;;;;;;;;12.40;75.80;;;;;;2072796;28;712;-53
2021/01/20 02:33:03;;;;;;;;;;;12.40;75.70;;;;;;2092592;28;1910;-53
2021/01/20 02:34:41;;;;;;;;;;;12.40;75.70;;;;;;2073007;28;1045;-55
2021/01/20 02:36:03;;;;;;;;;;;12.40;75.70;;;;;;2076801;28;681;-52
2021/01/20 02:37:27;;;;;;;;;;;12.40;75.70;;;;;;2075901;28;769;-52
2021/01/20 02:39:07;;;;;;;;;;;12.40;75.70;;;;;;2080492;28;803;-52
2021/01/20 02:40:28;;;;;;;;;;;12.40;75.60;;;;;;2072130;28;780;-53
2021/01/20 02:42:19;;;;;;;;;;;12.40;75.60;;;;;;2080310;28;743;-52
2021/01/20 02:43:45;;;;;;;;;;;12.40;75.60;;;;;;2079251;28;1536;-53
2021/01/20 02:45:23;;;;;;;;;;;12.40;75.60;;;;;;2083838;28;1249;-53
2021/01/20 02:46:45;;;;;;;;;;;12.40;75.60;;;;;;2087089;28;1125;-53
2021/01/20 02:48:30;;;;;;;;;;;12.40;75.80;;;;;;2088890;28;1258;-55
2021/01/20 02:49:52;;;;;;;;;;;12.40;75.60;;;;;;2086778;28;1580;-54
2021/01/20 02:51:13;;;;;;;;;;;12.40;75.60;;;;;;2085385;28;1240;-54
2021/01/20 02:52:56;;;;;;;;;;;12.40;75.70;;;;;;2087256;28;1956;-54
2021/01/20 02:54:35;;;;;;;;;;;12.40;76.30;;;;;;2087020;28;1803;-53
2021/01/20 02:56:13;;;;;;;;;;;12.50;75.40;;;;;;2087162;28;1121;-53
2021/01/20 02:57:38;;;;;;;;;;;12.50;74.90;;;;;;2086240;28;1670;-54
2021/01/20 02:59:02;;;;;;;;;;;12.60;74.30;;;;;;2077229;28;1196;-54
2021/01/20 03:00:44;;;;;;;;;;;12.60;74.00;;;;;;2087595;28;1122;-52
2021/01/20 03:02:05;;;;;;;;;;;12.70;73.30;;;;;;2092262;28;1240;-53
2021/01/20 03:03:24;;;;;;;;;;;12.80;72.60;;;;;;2098968;28;1477;-55
2021/01/20 03:04:44;;;;;;;;;;;12.80;72.10;;;;;;2093654;28;1091;-53
2021/01/20 03:06:04;;;;;;;;;;;12.80;71.70;;;;;;2084398;28;1441;-54
2021/01/20 03:07:23;;;;;;;;;;;12.90;71.30;;;;;;2079804;28;1256;-55
2021/01/20 03:08:42;;;;;;;;;;;12.90;70.80;;;;;;2082982;28;1364;-54
2021/01/20 03:10:01;;;;;;;;;;;12.90;70.60;;;;;;2084235;28;1175;-54
2021/01/20 03:11:21;;;;;;;;;;;12.90;70.40;;;;;;2075768;28;1120;-55
2021/01/20 03:12:41;;;;;;;;;;;12.90;70.30;;;;;;2084240;28;1176;-54
2021/01/20 03:14:00;;;;;;;;;;;12.90;70.80;;;;;;2088532;28;1252;-54
2021/01/20 03:15:23;;;;;;;;;;;13.00;70.10;;;;;;2087489;28;1117;-54
2021/01/20 03:16:42;;;;;;;;;;;12.90;69.90;;;;;;2083210;28;1115;-54
2021/01/20 03:18:01;;;;;;;;;;;13.00;70.00;;;;;;2085144;28;1129;-54
2021/01/20 03:19:20;;;;;;;;;;;13.00;70.00;;;;;;2086699;28;1107;-55
2021/01/20 03:20:39;;;;;;;;;;;12.90;69.90;;;;;;2087737;28;1237;-54
2021/01/20 03:21:58;;;;;;;;;;;12.90;69.90;;;;;;2088303;28;866;-54
2021/01/20 03:23:18;;;;;;;;;;;12.90;69.90;;;;;;2087036;28;1423;-54
2021/01/20 03:24:37;;;;;;;;;;;12.90;70.00;;;;;;2087064;28;1047;-54
2021/01/20 03:25:59;;;;;;;;;;;12.90;70.00;;;;;;2088190;28;1185;-54
2021/01/20 03:27:18;;;;;;;;;;;12.90;70.10;;;;;;2088439;28;1085;-52
2021/01/20 03:28:37;;;;;;;;;;;12.90;70.10;;;;;;2087267;28;1396;-54
2021/01/20 03:29:56;;;;;;;;;;;12.90;70.50;;;;;;2087814;28;1337;-54
2021/01/20 03:31:16;;;;;;;;;;;12.90;70.20;;;;;;2084573;28;1101;-54
2021/01/20 03:32:35;;;;;;;;;;;12.90;70.30;;;;;;2083085;28;1168;-55
2021/01/20 03:33:54;;;;;;;;;;;12.90;70.30;;;;;;2083328;28;1400;-55
2021/01/20 03:35:14;;;;;;;;;;;12.90;70.40;;;;;;2080984;28;1178;-55
2021/01/20 03:36:33;;;;;;;;;;;12.80;70.30;;;;;;2083562;28;999;-55
2021/01/20 03:37:52;;;;;;;;;;;12.80;70.40;;;;;;2082408;28;1105;-54
2021/01/20 03:39:11;;;;;;;;;;;12.80;70.40;;;;;;2082702;28;783;-55
2021/01/20 03:40:31;;;;;;;;;;;12.90;70.60;;;;;;2087138;28;1419;-52
2021/01/20 03:41:50;;;;;;;;;;;12.80;70.50;;;;;;2085102;28;1053;-52
2021/01/20 03:43:09;;;;;;;;;;;12.80;70.60;;;;;;2082822;28;1415;-54
2021/01/20 03:44:28;;;;;;;;;;;12.80;70.60;;;;;;2086355;28;1191;-54
2021/01/20 03:45:48;;;;;;;;;;;12.80;70.60;;;;;;2082408;28;1138;-54
2021/01/20 03:47:07;;;;;;;;;;;12.80;70.70;;;;;;2080602;28;1260;-55
2021/01/20 03:48:26;;;;;;;;;;;12.80;70.90;;;;;;2084594;28;1288;-54
2021/01/20 03:49:46;;;;;;;;;;;12.80;70.90;;;;;;2081353;28;1166;-54
2021/01/20 03:51:05;;;;;;;;;;;12.80;70.80;;;;;;2084340;28;1111;-54
2021/01/20 03:52:24;;;;;;;;;;;12.80;70.90;;;;;;2083393;28;1089;-54
2021/01/20 03:53:43;;;;;;;;;;;12.80;71.00;;;;;;2083898;28;1511;-54
2021/01/20 03:55:03;;;;;;;;;;;12.80;71.10;;;;;;2083384;28;1043;-55
2021/01/20 03:56:22;;;;;;;;;;;12.80;71.10;;;;;;2083152;28;1223;-54
2021/01/20 03:57:41;;;;;;;;;;;12.80;71.10;;;;;;2071150;28;1427;-54
2021/01/20 03:59:00;;;;;;;;;;;12.80;71.20;;;;;;2078929;28;907;-54
2021/01/20 04:00:19;;;;;;;;;;;12.70;71.10;;;;;;2082148;28;1213;-53
2021/01/20 04:01:38;;;;;;;;;;;12.80;72.00;;;;;;2085346;28;1068;-54
2021/01/20 04:02:58;;;;;;;;;;;12.70;71.10;;;;;;2082322;28;1108;-54
2021/01/20 04:04:27;;;;;;;;;;;12.70;71.20;;;;;;2082721;28;1238;-54
2021/01/20 04:05:46;;;;;;;;;;;12.70;71.20;;;;;;2086899;28;1180;-54
2021/01/20 04:07:06;;;;;;;;;;;12.70;71.20;;;;;;2087230;28;1245;-54
2021/01/20 04:08:25;;;;;;;;;;;12.70;71.30;;;;;;2087667;28;1153;-53
2021/01/20 04:09:44;;;;;;;;;;;12.70;71.20;;;;;;2087266;28;1248;-53
2021/01/20 04:11:03;;;;;;;;;;;12.70;71.30;;;;;;2087826;28;1408;-52
2021/01/20 04:12:24;;;;;;;;;;;12.70;71.30;;;;;;2089717;28;1175;-55
2021/01/20 04:13:43;;;;;;;;;;;12.70;71.30;;;;;;2089010;28;1910;-52
2021/01/20 04:15:05;;;;;;;;;;;12.70;71.50;;;;;;2087950;28;1462;-55
2021/01/20 04:16:24;;;;;;;;;;;12.70;71.50;;;;;;2088433;28;1199;-55
2021/01/20 04:17:43;;;;;;;;;;;12.70;71.50;;;;;;2089147;28;1279;-53
2021/01/20 04:19:03;;;;;;;;;;;12.70;71.50;;;;;;2087485;28;1177;-54
2021/01/20 04:20:22;;;;;;;;;;;12.60;71.40;;;;;;2089124;28;1066;-52
2021/01/20 04:21:41;;;;;;;;;;;12.70;72.30;;;;;;2089542;28;819;-55
2021/01/20 04:23:00;;;;;;;;;;;12.60;71.50;;;;;;2088353;28;2127;-54
2021/01/20 04:24:19;;;;;;;;;;;12.60;72.30;;;;;;2088625;28;1134;-54
2021/01/20 04:25:38;;;;;;;;;;;12.70;71.70;;;;;;2087898;28;1044;-54
2021/01/20 04:26:58;;;;;;;;;;;12.70;71.80;;;;;;2084353;28;933;-54
2021/01/20 04:28:17;;;;;;;;;;;12.60;71.90;;;;;;2085019;28;1053;-54
2021/01/20 04:29:36;;;;;;;;;;;12.60;72.10;;;;;;2086572;28;1200;-54
2021/01/20 04:30:56;;;;;;;;;;;12.70;72.20;;;;;;2084920;28;1346;-54
2021/01/20 04:32:15;;;;;;;;;;;12.70;72.10;;;;;;2085729;28;1244;-54
2021/01/20 04:33:34;;;;;;;;;;;12.70;72.00;;;;;;2079640;28;1906;-55
2021/01/20 04:34:53;;;;;;;;;;;12.70;71.80;;;;;;2085312;28;1077;-55
2021/01/20 04:36:13;;;;;;;;;;;12.80;71.50;;;;;;2084993;28;1224;-52
2021/01/20 04:37:32;;;;;;;;;;;12.90;71.10;;;;;;2085444;28;1137;-52
2021/01/20 04:38:51;;;;;;;;;;;12.90;70.70;;;;;;2084378;28;1119;-53
2021/01/20 04:40:11;;;;;;;;;;;12.90;71.00;;;;;;2091778;28;1086;-54
2021/01/20 04:41:29;;;;;;;;;;;12.90;70.50;;;;;;2087603;28;1174;-53
2021/01/20 04:42:49;;;;;;;;;;;13.00;70.30;;;;;;2083398;28;1267;-53
2021/01/20 04:44:08;;;;;;;;;;;13.10;69.20;;;;;;2087796;28;1426;-52
2021/01/20 04:45:27;;;;;;;;;;;13.10;68.70;;;;;;2097351;28;1237;-54
2021/01/20 04:46:47;;;;;;;;;;;13.10;68.50;;;;;;2087264;28;1320;-54
2021/01/20 04:48:06;;;;;;;;;;;13.20;68.10;;;;;;2087245;28;1427;-55
2021/01/20 04:49:25;;;;;;;;;;;13.20;67.80;;;;;;2087698;28;1435;-53
2021/01/20 04:50:45;;;;;;;;;;;13.30;67.60;;;;;;2093359;28;1436;-53
2021/01/20 04:52:05;;;;;;;;;;;13.30;67.20;;;;;;2082000;28;1240;-53
2021/01/20 04:53:24;;;;;;;;;;;13.40;67.10;;;;;;2083855;28;1982;-54
2021/01/20 04:54:44;;;;;;;;;;;13.40;66.80;;;;;;2087321;28;1302;-56
2021/01/20 04:56:06;;;;;;;;;;;13.40;66.30;;;;;;2084444;28;1197;-54
2021/01/20 04:57:25;;;;;;;;;;;13.50;67.00;;;;;;2094238;28;1222;-54
2021/01/20 04:58:45;;;;;;;;;;;13.50;65.80;;;;;;2093177;28;1537;-55
2021/01/20 05:00:05;;;;;;;;;;;13.60;65.70;;;;;;2087792;28;1439;-55
2021/01/20 05:01:24;;;;;;;;;;;13.60;65.70;;;;;;2088406;28;1153;-56
2021/01/20 05:02:44;;;;;;;;;;;13.70;65.90;;;;;;2088030;28;1270;-57
2021/01/20 05:04:03;;;;;;;;;;;13.70;65.70;;;;;;2087231;28;1262;-55
2021/01/20 05:05:22;;;;;;;;;;;13.80;65.60;;;;;;2097916;28;1230;-54
2021/01/20 05:06:42;;;;;;;;;;;13.90;65.20;;;;;;2088008;28;1131;-54
2021/01/20 05:08:01;;;;;;;;;;;13.90;64.70;;;;;;2084741;28;1283;-55
2021/01/20 05:09:20;;;;;;;;;;;13.90;64.50;;;;;;2081269;28;1050;-54
2021/01/20 05:10:39;;;;;;;;;;;13.90;65.20;;;;;;2082633;28;1097;-55
2021/01/20 05:11:58;;;;;;;;;;;13.90;65.20;;;;;;2083491;28;1057;-54
2021/01/20 05:13:27;;;;;;;;;;;13.90;64.40;;;;;;2088977;28;1913;-54
2021/01/20 05:14:46;;;;;;;;;;;13.90;64.50;;;;;;2087463;28;1097;-55
2021/01/20 05:16:05;;;;;;;;;;;13.80;64.50;;;;;;2088537;28;1115;-54
2021/01/20 05:17:24;;;;;;;;;;;13.80;64.60;;;;;;2089381;28;1156;-54
2021/01/20 05:18:47;;;;;;;;;;;13.80;65.50;;;;;;2089464;28;1537;-55
2021/01/20 05:20:06;;;;;;;;;;;13.80;64.80;;;;;;2089318;28;1249;-53
2021/01/20 05:21:26;;;;;;;;;;;13.80;64.80;;;;;;2091263;28;1221;-54
2021/01/20 05:22:54;;;;;;;;;;;13.80;64.70;;;;;;2088227;28;1323;-55
2021/01/20 05:24:19;;;;;;;;;;;13.90;64.70;;;;;;2095583;28;1095;-54
2021/01/20 05:25:43;;;;;;;;;;;13.90;64.60;;;;;;2087929;28;1336;-54
2021/01/20 05:27:02;;;;;;;;;;;14.00;64.40;;;;;;2088985;28;1163;-55
2021/01/20 05:28:25;;;;;;;;;;;14.00;65.00;;;;;;2089547;28;1214;-54
2021/01/20 05:29:55;;;;;;;;;;;14.10;64.80;;;;;;2089100;28;1212;-54
2021/01/20 05:31:24;;;;;;;;;;;14.10;63.50;;;;;;2100550;28;1361;-53
2021/01/20 05:32:43;;;;;;;;;;;14.20;63.30;;;;;;2087167;28;1319;-55
2021/01/20 05:34:02;;;;;;;;;;;14.20;63.00;;;;;;2096704;28;1347;-54
2021/01/20 05:35:21;;;;;;;;;;;14.20;62.80;;;;;;2092800;28;1130;-53
2021/01/20 05:36:40;;;;;;;;;;;14.30;62.60;;;;;;2089651;28;1123;-59
2021/01/20 05:37:59;;;;;;;;;;;14.30;62.20;;;;;;2087704;28;1170;-55
2021/01/20 05:39:19;;;;;;;;;;;14.40;62.00;;;;;;2090064;28;1172;-58
2021/01/20 05:40:38;;;;;;;;;;;14.50;61.80;;;;;;2088278;28;1114;-54
2021/01/20 05:42:07;;;;;;;;;;;14.50;61.30;;;;;;2089424;28;1058;-55
2021/01/20 05:43:26;;;;;;;;;;;14.60;61.20;;;;;;2087308;28;1518;-55
2021/01/20 05:45:00;;;;;;;;;;;14.60;61.60;;;;;;2088857;28;1266;-54
2021/01/20 05:46:32;;;;;;;;;;;14.70;61.50;;;;;;2089069;28;1155;-55
2021/01/20 05:48:05;;;;;;;;;;;14.70;61.30;;;;;;2089070;28;1134;-54
2021/01/20 05:49:25;;;;;;;;;;;14.80;60.10;;;;;;2091819;28;1179;-54
2021/01/20 05:50:56;;;;;;;;;;;14.80;59.90;;;;;;2089140;28;1298;-54
2021/01/20 05:52:16;;;;;;;;;;;14.90;59.80;;;;;;2089305;28;1441;-54
2021/01/20 05:53:46;;;;;;;;;;;14.90;59.60;;;;;;2089271;28;1907;-54
2021/01/20 05:55:11;;;;;;;;;;;15.00;59.50;;;;;;2085218;28;1152;-54
2021/01/20 05:56:30;;;;;;;;;;;15.10;59.40;;;;;;2094831;28;1352;-54
2021/01/20 05:57:52;;;;;;;;;;;15.10;59.20;;;;;;2088435;28;1150;-54
2021/01/20 05:59:11;;;;;;;;;;;15.20;59.00;;;;;;2089514;28;1314;-52
2021/01/20 06:00:31;;;;;;;;;;;15.20;58.70;;;;;;2097093;28;1261;-53
2021/01/20 06:01:50;;;;;;;;;;;15.20;58.70;;;;;;2089277;28;1444;-54
2021/01/20 06:03:09;;;;;;;;;;;15.20;58.50;;;;;;2085252;28;1468;-54
2021/01/20 06:04:29;;;;;;;;;;;15.30;58.50;;;;;;2089526;28;1344;-52
2021/01/20 06:05:48;;;;;;;;;;;15.30;58.50;;;;;;2089170;28;1187;-53
2021/01/20 06:07:08;;;;;;;;;;;15.30;58.60;;;;;;2098478;28;1078;-55
2021/01/20 06:08:28;;;;;;;;;;;15.20;58.60;;;;;;2094587;28;1236;-54
2021/01/20 06:09:47;;;;;;;;;;;15.20;59.20;;;;;;2089267;28;1516;-54
2021/01/20 06:11:06;;;;;;;;;;;15.20;58.70;;;;;;2088981;28;1253;-54
2021/01/20 06:12:25;;;;;;;;;;;15.20;58.80;;;;;;2089280;28;1421;-55
2021/01/20 06:13:45;;;;;;;;;;;15.10;58.90;;;;;;2088510;28;1922;-55
2021/01/20 06:15:04;;;;;;;;;;;15.10;59.10;;;;;;2087853;28;1123;-54
2021/01/20 06:16:24;;;;;;;;;;;15.10;59.20;;;;;;2088740;28;1232;-54
2021/01/20 06:17:44;;;;;;;;;;;15.10;59.40;;;;;;2088343;28;1280;-54
2021/01/20 06:19:06;;;;;;;;;;;15.00;59.50;;;;;;2089196;28;1084;-54
2021/01/20 06:20:25;;;;;;;;;;;15.00;59.60;;;;;;2097139;28;1272;-54
2021/01/20 06:21:45;;;;;;;;;;;15.00;59.80;;;;;;2090985;28;1168;-54
2021/01/20 06:23:04;;;;;;;;;;;15.00;60.10;;;;;;2086430;28;1451;-55
2021/01/20 06:24:26;;;;;;;;;;;15.00;60.30;;;;;;2089101;28;1369;-54
2021/01/20 06:25:46;;;;;;;;;;;15.00;60.30;;;;;;2085520;28;1220;-55
2021/01/20 06:27:10;;;;;;;;;;;15.00;60.30;;;;;;2080402;28;872;-56
2021/01/20 06:28:29;;;;;;;;;;;15.00;60.50;;;;;;2086368;28;894;-55
2021/01/20 06:29:49;;;;;;;;;;;15.00;60.70;;;;;;2093575;28;1513;-53
2021/01/20 06:31:08;;;;;;;;;;;15.10;61.30;;;;;;2078195;28;1261;-53
2021/01/20 06:32:28;;;;;;;;;;;15.10;61.90;;;;;;2070527;28;1156;-54
2021/01/20 06:33:47;;;;;;;;;;;15.10;60.80;;;;;;2085254;28;1957;-54
2021/01/20 06:35:06;;;;;;;;;;;15.20;60.50;;;;;;2087462;28;1402;-54
2021/01/20 06:36:32;;;;;;;;;;;15.10;60.40;;;;;;2088855;28;1159;-54
2021/01/20 06:37:51;;;;;;;;;;;15.10;60.50;;;;;;2079511;28;1191;-55
2021/01/20 06:39:25;;;;;;;;;;;15.10;60.60;;;;;;2085849;28;1014;-54
2021/01/20 06:40:45;;;;;;;;;;;15.10;60.60;;;;;;2088191;28;856;-53
2021/01/20 06:42:04;;;;;;;;;;;15.10;60.70;;;;;;2086899;28;1036;-54
2021/01/20 06:43:39;;;;;;;;;;;15.00;60.80;;;;;;2096862;28;1452;-55
2021/01/20 06:45:17;;;;;;;;;;;15.00;61.00;;;;;;2086823;28;1179;-54
2021/01/20 06:46:36;;;;;;;;;;;15.00;61.20;;;;;;2097033;28;1275;-53
2021/01/20 06:47:59;;;;;;;;;;;14.90;61.30;;;;;;2091778;28;1278;-54
2021/01/20 06:49:18;;;;;;;;;;;14.90;61.50;;;;;;2097409;28;1421;-53
2021/01/20 06:50:56;;;;;;;;;;;14.90;61.70;;;;;;2089302;28;1238;-53
2021/01/20 06:52:15;;;;;;;;;;;14.90;62.00;;;;;;2088976;28;1031;-53
2021/01/20 06:53:55;;;;;;;;;;;14.80;62.10;;;;;;2087388;28;1965;-52
2021/01/20 06:55:29;;;;;;;;;;;14.80;62.20;;;;;;2097384;28;1233;-55
2021/01/20 06:56:49;;;;;;;;;;;14.80;62.40;;;;;;2090040;28;1368;-52
2021/01/20 06:58:20;;;;;;;;;;;14.80;62.70;;;;;;2099481;28;1496;-55
2021/01/20 06:59:39;;;;;;;;;;;14.80;62.80;;;;;;2089482;28;1081;-55
2021/01/20 07:00:58;;;;;;;;;;;14.70;63.00;;;;;;2088901;28;1365;-52
2021/01/20 07:02:17;;;;;;;;;;;14.70;63.20;;;;;;2089116;28;1083;-55
2021/01/20 07:03:46;;;;;;;;;;;14.70;63.40;;;;;;2088451;28;1403;-53
2021/01/20 07:05:06;;;;;;;;;;;14.70;63.50;;;;;;2097135;28;1115;-53
2021/01/20 07:06:40;;;;;;;;;;;14.60;63.60;;;;;;2087344;28;1267;-53
2021/01/20 07:07:59;;;;;;;;;;;14.60;63.80;;;;;;2088619;28;1379;-53
2021/01/20 07:09:19;;;;;;;;;;;14.60;63.90;;;;;;2088426;28;1106;-52
2021/01/20 07:10:57;;;;;;;;;;;14.60;64.10;;;;;;2088899;28;1275;-55
2021/01/20 07:12:17;;;;;;;;;;;14.60;64.30;;;;;;2087895;28;1048;-55
2021/01/20 07:13:36;;;;;;;;;;;14.50;64.30;;;;;;2085762;28;1962;-55
2021/01/20 07:14:55;;;;;;;;;;;14.50;64.60;;;;;;2096529;28;1227;-53
2021/01/20 07:16:15;;;;;;;;;;;14.50;64.80;;;;;;2089902;28;1132;-53
2021/01/20 07:17:34;;;;;;;;;;;14.50;64.90;;;;;;2100454;28;1271;-53
2021/01/20 07:18:53;;;;;;;;;;;14.50;65.10;;;;;;2087557;28;1056;-53
2021/01/20 07:20:13;;;;;;;;;;;14.50;65.20;;;;;;2085223;28;945;-54
2021/01/20 07:21:32;;;;;;;;;;;14.40;65.20;;;;;;2093341;28;1275;-54
2021/01/20 07:22:51;;;;;;;;;;;14.40;65.30;;;;;;2091125;28;1229;-54
2021/01/20 07:24:10;;;;;;;;;;;14.40;65.50;;;;;;2083329;28;1321;-54
2021/01/20 07:25:30;;;;;;;;;;;14.50;65.70;;;;;;2093588;28;1207;-53
2021/01/20 07:26:49;;;;;;;;;;;14.50;65.70;;;;;;2090614;28;1164;-54
2021/01/20 07:28:08;;;;;;;;;;;14.50;66.30;;;;;;2088349;28;1265;-55
2021/01/20 07:29:30;;;;;;;;;;;14.50;66.20;;;;;;2088888;28;1122;-55
2021/01/20 07:30:49;;;;;;;;;;;14.60;65.40;;;;;;2087843;28;1105;-54
2021/01/20 07:32:08;;;;;;;;;;;14.60;65.10;;;;;;2090368;28;1055;-54
2021/01/20 07:33:27;;;;;;;;;;;14.60;64.90;;;;;;2097846;28;1967;-54
2021/01/20 07:34:47;;;;;;;;;;;14.70;64.80;;;;;;2086268;28;1243;-54
2021/01/20 07:36:13;;;;;;;;;;;14.70;64.50;;;;;;2084889;28;1272;-54
2021/01/20 07:37:32;;;;;;;;;;;14.80;64.20;;;;;;2087235;28;1213;-54
2021/01/20 07:38:52;;;;;;;;;;;14.80;63.80;;;;;;2084318;28;853;-54
2021/01/20 07:40:11;;;;;;;;;;;14.90;63.60;;;;;;2086954;28;1106;-54
2021/01/20 07:41:30;;;;;;;;;;;14.90;63.30;;;;;;2089076;28;1223;-55
2021/01/20 07:42:49;;;;;;;;;;;15.00;63.00;;;;;;2088074;28;1237;-53
2021/01/20 07:44:09;;;;;;;;;;;15.00;62.80;;;;;;2088754;28;1234;-52
2021/01/20 07:45:31;;;;;;;;;;;15.00;62.60;;;;;;2097288;28;1391;-49
2021/01/20 07:46:59;;;;;;;;;;;15.00;62.40;;;;;;2090967;28;1414;-53
2021/01/20 07:48:27;;;;;;;;;;;15.00;62.70;;;;;;2090076;28;1454;-56
2021/01/20 07:49:53;;;;;;;;;;;15.10;63.10;;;;;;2089026;28;1219;-55
2021/01/20 07:51:21;;;;;;;;;;;15.10;63.00;;;;;;2090714;28;1176;-55
2021/01/20 07:52:40;;;;;;;;;;;15.10;62.50;;;;;;2092138;28;1106;-54
2021/01/20 07:54:03;;;;;;;;;;;15.10;62.50;;;;;;2077895;28;1491;-54
2021/01/20 07:55:21;;;;;;;;;;;15.10;62.50;;;;;;2091552;28;1185;-54
2021/01/20 07:56:41;;;;;;;;;;;15.10;62.60;;;;;;2094370;28;1333;-55
2021/01/20 07:58:00;;;;;;;;;;;15.10;62.60;;;;;;2080319;28;1529;-55
2021/01/20 07:59:19;;;;;;;;;;;15.00;62.50;;;;;;2087275;28;1371;-54
2021/01/20 08:00:45;;;;;;;;;;;15.00;62.60;;;;;;2089519;28;1037;-55
2021/01/20 08:02:11;;;;;;;;;;;15.00;62.60;;;;;;2093115;28;1242;-53
2021/01/20 08:03:32;;;;;;;;;;;15.00;62.70;;;;;;2089926;28;1434;-54
2021/01/20 08:05:00;;;;;;;;;;;15.00;63.00;;;;;;2088774;28;1161;-54
2021/01/20 08:06:19;;;;;;;;;;;14.90;62.90;;;;;;2090041;28;1034;-53
2021/01/20 08:07:38;;;;;;;;;;;14.90;63.00;;;;;;2089083;28;1206;-53
2021/01/20 08:08:58;;;;;;;;;;;14.90;63.20;;;;;;2081765;28;1310;-54